Terminal Aerodrome Forecast
Issued by NWS

Home | Current Version | Previous Version | Text Only | Print | Product List | Glossary On
Versions: 1 2 3 4 5 6 7 8 9 10 11 12 13 14 15
000
FTUS45 KPSR 231728
TAFIWA
TAF
KIWA 231728Z 2318/2418 25006KT P6SM SCT160 BKN250
     FM232000 25009G16KT P6SM FEW250
     FM240300 29008KT P6SM FEW250
     FM240900 13006KT P6SM SKC=

USA.gov is the U.S. government's official web portal to all federal, state and local government web resources and services.